createdAt,value
2023-05-06T00:00:27.308Z,23.04
2023-05-06T00:01:27.426Z,23.04
2023-05-06T00:02:27.467Z,23.05
2023-05-06T00:03:27.522Z,23.05
2023-05-06T00:04:27.493Z,23.05
2023-05-06T00:05:27.521Z,23.04
2023-05-06T00:06:27.612Z,23.05
2023-05-06T00:07:27.592Z,23.04
2023-05-06T00:08:27.635Z,23.04
2023-05-06T00:09:27.681Z,23.03
2023-05-06T00:10:27.713Z,23.04
2023-05-06T00:11:27.723Z,23.04
2023-05-06T00:12:28.161Z,23.04
2023-05-06T00:13:27.805Z,23.04
2023-05-06T00:14:27.908Z,23.04
2023-05-06T00:15:29.204Z,23.04
2023-05-06T00:16:27.957Z,23.04
2023-05-06T00:17:27.933Z,23.03
2023-05-06T00:18:27.872Z,23.03
2023-05-06T00:19:27.892Z,23.03
2023-05-06T00:20:27.863Z,23.04
2023-05-06T00:21:27.864Z,23.04
2023-05-06T00:22:27.878Z,23.03
2023-05-06T00:23:27.864Z,23.04
2023-05-06T00:24:27.870Z,23.03
2023-05-06T00:25:27.901Z,23.03
2023-05-06T00:26:27.830Z,23.03
2023-05-06T00:27:27.834Z,23.04
2023-05-06T00:28:27.846Z,23.03
2023-05-06T00:29:27.813Z,23.03
2023-05-06T00:30:27.815Z,23.03
2023-05-06T00:31:28.000Z,23.03
2023-05-06T00:32:27.857Z,23.03
2023-05-06T00:33:27.855Z,23.03
2023-05-06T00:34:27.746Z,23.02
2023-05-06T00:35:27.744Z,23.03
2023-05-06T00:36:27.801Z,23.03
2023-05-06T00:37:27.772Z,23.03
2023-05-06T00:38:27.730Z,23.03
2023-05-06T00:39:27.730Z,23.02
2023-05-06T00:40:27.730Z,23.03
2023-05-06T00:41:27.748Z,23.03
2023-05-06T00:42:27.710Z,23.03
2023-05-06T00:43:27.720Z,23.02
2023-05-06T00:44:27.703Z,23.03
2023-05-06T00:45:27.668Z,23.03
2023-05-06T00:46:27.834Z,23.02
2023-05-06T00:47:27.868Z,23.02
2023-05-06T00:48:27.665Z,23.02
2023-05-06T00:49:27.681Z,23.02
2023-05-06T00:50:27.645Z,23.03
2023-05-06T00:51:27.610Z,23.02
2023-05-06T00:52:27.620Z,23.03
2023-05-06T00:53:27.668Z,23.03
2023-05-06T00:54:27.716Z,23.02
2023-05-06T00:55:27.607Z,23.02
2023-05-06T00:56:27.649Z,23.02
2023-05-06T00:57:27.661Z,23.02
2023-05-06T00:58:27.607Z,23.02
2023-05-06T00:59:28.147Z,23.02
2023-05-06T01:00:27.615Z,23.02
2023-05-06T01:01:27.609Z,23.02
2023-05-06T01:02:36.270Z,23.02
2023-05-06T01:03:28.874Z,23.01
2023-05-06T01:04:27.564Z,23.01
2023-05-06T01:05:27.550Z,23.01
2023-05-06T01:06:27.552Z,23.02
2023-05-06T01:07:27.582Z,23.01
2023-05-06T01:08:27.562Z,23.01
2023-05-06T01:09:27.504Z,23.01
2023-05-06T01:10:27.506Z,23.01
2023-05-06T01:11:27.514Z,23.02
2023-05-06T01:12:27.517Z,23.02
2023-05-06T01:13:27.654Z,23.01
2023-05-06T01:14:27.557Z,23.01
2023-05-06T01:15:27.565Z,23.01
2023-05-06T01:16:27.630Z,23.02
2023-05-06T01:17:27.656Z,23.01
2023-05-06T01:18:28.653Z,23.01
2023-05-06T01:19:27.789Z,23.01
2023-05-06T01:20:27.875Z,23.01
2023-05-06T01:21:27.814Z,23.02
2023-05-06T01:22:27.869Z,23.02
2023-05-06T01:23:27.892Z,23.01
2023-05-06T01:24:27.948Z,23.01
2023-05-06T01:25:27.975Z,23.00
2023-05-06T01:26:28.030Z,23.01
2023-05-06T01:27:28.054Z,23.01
2023-05-06T01:28:28.168Z,23.01
2023-05-06T01:29:28.149Z,23.00
2023-05-06T01:30:28.197Z,23.01
2023-05-06T01:31:28.243Z,23.01
2023-05-06T01:32:28.239Z,23.01
2023-05-06T01:33:28.691Z,23.00
2023-05-06T01:34:28.348Z,23.01
2023-05-06T01:35:28.518Z,23.00
2023-05-06T01:36:28.430Z,23.00
2023-05-06T01:37:28.486Z,23.00
2023-05-06T01:38:28.655Z,23.00
2023-05-06T01:39:28.554Z,23.00
2023-05-06T01:40:28.591Z,23.01
2023-05-06T01:41:28.637Z,23.01
2023-05-06T01:42:28.678Z,23.00
2023-05-06T01:43:28.744Z,23.01
2023-05-06T01:44:28.752Z,23.00
2023-05-06T01:45:28.830Z,23.01
2023-05-06T01:46:28.820Z,23.01
2023-05-06T01:47:28.890Z,23.01
2023-05-06T01:48:28.933Z,23.00
2023-05-06T01:49:28.969Z,23.00
2023-05-06T01:50:29.012Z,23.00
2023-05-06T01:51:29.048Z,23.00
2023-05-06T01:52:29.083Z,23.00
2023-05-06T01:53:29.113Z,23.00
2023-05-06T01:54:29.714Z,22.99
2023-05-06T01:55:29.176Z,23.01
2023-05-06T01:56:29.289Z,23.00
2023-05-06T01:57:29.290Z,23.00
2023-05-06T01:58:29.332Z,22.99
2023-05-06T01:59:29.644Z,23.00
2023-05-06T02:00:29.413Z,23.00
2023-05-06T02:01:29.464Z,22.99
2023-05-06T02:02:29.554Z,22.99
2023-05-06T02:03:29.593Z,22.99
2023-05-06T02:04:29.601Z,22.99
2023-05-06T02:05:29.601Z,22.99
2023-05-06T02:06:29.656Z,22.99
2023-05-06T02:07:29.733Z,22.99
2023-05-06T02:08:29.731Z,22.99
2023-05-06T02:09:29.815Z,22.99
2023-05-06T02:10:29.856Z,22.99
2023-05-06T02:11:29.867Z,22.99
2023-05-06T02:12:29.942Z,22.99
2023-05-06T02:13:29.937Z,22.98
2023-05-06T02:14:29.999Z,22.99
2023-05-06T02:15:30.058Z,22.99
2023-05-06T02:16:30.184Z,23.00
2023-05-06T02:17:30.179Z,22.99
2023-05-06T02:18:30.184Z,23.00
2023-05-06T02:19:30.223Z,22.99
2023-05-06T02:20:30.255Z,22.99
2023-05-06T02:21:30.371Z,22.99
2023-05-06T02:22:30.344Z,22.99
2023-05-06T02:23:30.462Z,22.98
2023-05-06T02:24:30.439Z,22.99
2023-05-06T02:25:30.462Z,22.98
2023-05-06T02:26:30.560Z,22.99
2023-05-06T02:27:30.571Z,22.99
2023-05-06T02:28:30.605Z,22.98
2023-05-06T02:29:30.713Z,22.98
2023-05-06T02:30:30.705Z,22.98
2023-05-06T02:31:30.843Z,22.98
2023-05-06T02:32:30.838Z,22.98
2023-05-06T02:33:31.209Z,22.99
2023-05-06T02:34:30.938Z,22.99
2023-05-06T02:35:30.966Z,22.99
2023-05-06T02:36:31.029Z,22.98
2023-05-06T02:37:31.032Z,22.98
2023-05-06T02:38:31.074Z,22.98
2023-05-06T02:39:31.149Z,22.99
2023-05-06T02:40:31.199Z,22.99
2023-05-06T02:41:31.214Z,22.98
2023-05-06T02:42:31.303Z,22.98
2023-05-06T02:43:31.426Z,22.98
2023-05-06T02:44:31.390Z,22.98
2023-05-06T02:45:31.426Z,22.98
2023-05-06T02:46:31.430Z,22.98
2023-05-06T02:47:31.572Z,22.98
2023-05-06T02:48:31.719Z,22.98
2023-05-06T02:49:31.609Z,22.99
2023-05-06T02:50:31.642Z,22.98
2023-05-06T02:51:31.661Z,22.98
2023-05-06T02:52:31.709Z,22.98
2023-05-06T02:53:31.805Z,22.98
2023-05-06T02:54:31.859Z,22.98
2023-05-06T02:55:31.940Z,22.97
2023-05-06T02:56:31.921Z,22.97
2023-05-06T02:57:32.697Z,22.98
2023-05-06T02:58:32.005Z,22.97
2023-05-06T02:59:32.056Z,22.98
2023-05-06T03:00:32.126Z,22.98
2023-05-06T03:01:32.219Z,22.98
2023-05-06T03:02:32.237Z,22.98
2023-05-06T03:03:32.265Z,22.97
2023-05-06T03:04:32.444Z,22.98
2023-05-06T03:05:32.342Z,22.98
2023-05-06T03:06:32.395Z,22.98
2023-05-06T03:07:32.415Z,22.98
2023-05-06T03:08:32.503Z,22.98
2023-05-06T03:09:32.540Z,22.98
2023-05-06T03:10:32.627Z,22.98
2023-05-06T03:11:32.694Z,22.97
2023-05-06T03:12:32.762Z,22.97
2023-05-06T03:13:32.749Z,22.98
2023-05-06T03:14:32.810Z,22.98
2023-05-06T03:15:32.864Z,22.97
2023-05-06T03:16:33.018Z,22.96
2023-05-06T03:17:32.965Z,22.96
2023-05-06T03:18:33.255Z,22.97
2023-05-06T03:19:33.061Z,22.97
2023-05-06T03:20:33.160Z,22.96
2023-05-06T03:21:33.207Z,22.97
2023-05-06T03:22:33.202Z,22.96
2023-05-06T03:23:33.282Z,22.97
2023-05-06T03:24:33.358Z,22.97
2023-05-06T03:25:33.397Z,22.97
2023-05-06T03:26:33.416Z,22.96
2023-05-06T03:27:33.605Z,22.96
2023-05-06T03:28:33.534Z,22.96
2023-05-06T03:29:33.591Z,22.96
2023-05-06T03:30:33.696Z,22.96
2023-05-06T03:31:33.742Z,22.96
2023-05-06T03:32:33.776Z,22.97
2023-05-06T03:33:33.877Z,22.96
2023-05-06T03:34:33.865Z,22.96
2023-05-06T03:35:33.939Z,22.97
2023-05-06T03:36:33.935Z,22.96
2023-05-06T03:37:34.018Z,22.96
2023-05-06T03:38:34.111Z,22.96
2023-05-06T03:39:34.104Z,22.96
2023-05-06T03:40:34.181Z,22.96
2023-05-06T03:41:34.228Z,22.96
2023-05-06T03:42:34.282Z,22.95
2023-05-06T03:43:34.382Z,22.96
2023-05-06T03:44:34.383Z,22.95
2023-05-06T03:45:34.445Z,22.96
2023-05-06T03:46:34.625Z,22.95
2023-05-06T03:47:34.613Z,22.95
2023-05-06T03:48:34.612Z,22.96
2023-05-06T03:49:34.666Z,22.95
2023-05-06T03:50:34.722Z,22.95
2023-05-06T03:51:34.773Z,22.95
2023-05-06T03:52:34.792Z,22.95
2023-05-06T03:53:34.910Z,22.96
2023-05-06T03:54:34.907Z,22.95
2023-05-06T03:55:34.973Z,22.96
2023-05-06T03:56:35.061Z,22.95
2023-05-06T03:57:35.101Z,22.96
2023-05-06T03:58:35.142Z,22.96
2023-05-06T03:59:35.239Z,22.95
2023-05-06T04:00:35.223Z,22.95
2023-05-06T04:01:35.332Z,22.95
2023-05-06T04:02:35.471Z,22.96
2023-05-06T04:03:35.448Z,22.96
2023-05-06T04:04:35.415Z,22.96
2023-05-06T04:05:35.504Z,22.95
2023-05-06T04:06:35.527Z,22.94
2023-05-06T04:07:35.582Z,22.95
2023-05-06T04:08:35.738Z,22.95
2023-05-06T04:09:35.713Z,22.94
2023-05-06T04:10:35.754Z,22.95
2023-05-06T04:11:35.871Z,22.94
2023-05-06T04:12:35.880Z,22.94
2023-05-06T04:13:35.914Z,22.94
2023-05-06T04:14:35.970Z,22.95
2023-05-06T04:15:36.143Z,22.94
2023-05-06T04:16:36.121Z,22.95
2023-05-06T04:17:36.203Z,22.93
2023-05-06T04:18:36.158Z,22.94
2023-05-06T04:19:36.228Z,22.93
2023-05-06T04:20:36.324Z,22.93
2023-05-06T04:21:36.360Z,22.94
2023-05-06T04:22:36.359Z,22.94
2023-05-06T04:23:36.440Z,22.94
2023-05-06T04:24:36.491Z,22.93
2023-05-06T04:25:36.582Z,22.93
2023-05-06T04:26:36.601Z,22.94
2023-05-06T04:27:36.671Z,22.94
2023-05-06T04:28:36.744Z,22.93
2023-05-06T04:29:36.761Z,22.93
2023-05-06T04:30:36.842Z,22.93
2023-05-06T04:31:37.087Z,22.93
2023-05-06T04:32:36.974Z,22.95
2023-05-06T04:33:37.050Z,22.94
2023-05-06T04:34:37.054Z,22.94
2023-05-06T04:35:37.093Z,22.93
2023-05-06T04:36:38.361Z,22.94
2023-05-06T04:37:37.154Z,22.94
2023-05-06T04:38:37.164Z,22.94
2023-05-06T04:39:37.154Z,22.94
2023-05-06T04:40:37.132Z,22.93
2023-05-06T04:41:37.126Z,22.94
2023-05-06T04:42:37.136Z,22.94
2023-05-06T04:43:37.119Z,22.93
2023-05-06T04:44:37.153Z,22.94
2023-05-06T04:45:37.138Z,22.94
2023-05-06T04:46:37.112Z,22.93
2023-05-06T04:47:37.199Z,22.93
2023-05-06T04:48:37.139Z,22.93
2023-05-06T04:49:37.082Z,22.93
2023-05-06T04:50:37.068Z,22.93
2023-05-06T04:51:37.055Z,22.93
2023-05-06T04:52:37.101Z,22.94
2023-05-06T04:53:37.072Z,22.93
2023-05-06T04:54:37.065Z,22.93
2023-05-06T04:55:37.046Z,22.95
2023-05-06T04:56:37.038Z,22.93
2023-05-06T04:57:37.020Z,22.93
2023-05-06T04:58:37.070Z,22.93
2023-05-06T04:59:37.032Z,22.92
2023-05-06T05:00:37.057Z,22.93
2023-05-06T05:01:37.086Z,22.93
2023-05-06T05:02:37.127Z,22.92
2023-05-06T05:03:37.012Z,22.92
2023-05-06T05:04:36.961Z,22.92
2023-05-06T05:05:37.002Z,22.93
2023-05-06T05:06:36.977Z,22.91
2023-05-06T05:07:36.963Z,22.92
2023-05-06T05:08:36.967Z,22.93
2023-05-06T05:09:36.975Z,22.92
2023-05-06T05:10:36.953Z,22.92
2023-05-06T05:11:36.933Z,22.92
2023-05-06T05:12:36.945Z,22.92
2023-05-06T05:13:36.955Z,22.91
2023-05-06T05:14:36.933Z,22.91
2023-05-06T05:15:36.954Z,22.91
2023-05-06T05:16:37.079Z,22.92
2023-05-06T05:17:37.051Z,22.92
2023-05-06T05:18:37.095Z,22.92
2023-05-06T05:19:37.180Z,22.91
2023-05-06T05:20:37.189Z,22.92
2023-05-06T05:21:37.282Z,22.92
2023-05-06T05:22:37.380Z,22.92
2023-05-06T05:23:37.411Z,22.92
2023-05-06T05:24:37.465Z,22.92
2023-05-06T05:25:37.606Z,22.92
2023-05-06T05:26:37.602Z,22.92
2023-05-06T05:27:37.631Z,22.91
2023-05-06T05:28:37.807Z,22.92
2023-05-06T05:29:37.756Z,22.91
2023-05-06T05:30:37.813Z,22.91
2023-05-06T05:31:37.896Z,22.91
2023-05-06T05:32:38.071Z,22.91
2023-05-06T05:33:38.100Z,22.92
2023-05-06T05:34:38.048Z,22.92
2023-05-06T05:35:38.109Z,22.92
2023-05-06T05:36:38.218Z,22.92
2023-05-06T05:37:38.229Z,22.92
2023-05-06T05:38:38.306Z,22.91
2023-05-06T05:39:38.399Z,22.91
2023-05-06T05:40:38.410Z,22.91
2023-05-06T05:41:38.468Z,22.91
2023-05-06T05:42:38.514Z,22.91
2023-05-06T05:43:38.629Z,22.91
2023-05-06T05:44:38.677Z,22.91
2023-05-06T05:45:38.750Z,22.91
2023-05-06T05:46:38.860Z,22.91
2023-05-06T05:47:38.823Z,22.91
2023-05-06T05:48:38.891Z,22.91
2023-05-06T05:49:38.952Z,22.91
2023-05-06T05:50:38.999Z,22.91
2023-05-06T05:51:39.115Z,22.91
2023-05-06T05:52:39.151Z,22.91
2023-05-06T05:53:39.160Z,22.91
2023-05-06T05:54:39.216Z,22.91
2023-05-06T05:55:39.309Z,22.91
2023-05-06T05:56:39.380Z,22.91
2023-05-06T05:57:39.451Z,22.91
2023-05-06T05:58:39.477Z,22.91
2023-05-06T05:59:39.536Z,22.91
2023-05-06T06:00:39.601Z,22.91
2023-05-06T06:01:39.612Z,22.91
2023-05-06T06:02:39.809Z,22.91
2023-05-06T06:03:39.956Z,22.91
2023-05-06T06:04:39.828Z,22.91
2023-05-06T06:05:40.008Z,22.92
2023-05-06T06:06:39.903Z,22.93
2023-05-06T06:07:40.077Z,22.92
2023-05-06T06:08:40.002Z,22.92
2023-05-06T06:09:40.094Z,22.92
2023-05-06T06:10:40.152Z,22.92
2023-05-06T06:11:40.216Z,22.92
2023-05-06T06:12:40.255Z,22.92
2023-05-06T06:13:40.292Z,22.93
2023-05-06T06:14:40.353Z,22.92
2023-05-06T06:15:40.415Z,22.94
2023-05-06T06:16:40.483Z,22.93
2023-05-06T06:17:40.563Z,22.93
2023-05-06T06:18:40.630Z,22.93
2023-05-06T06:19:40.628Z,22.93
2023-05-06T06:20:40.725Z,22.93
2023-05-06T06:21:40.764Z,22.92
2023-05-06T06:22:40.789Z,22.92
2023-05-06T06:23:41.002Z,22.92
2023-05-06T06:24:40.926Z,22.92
2023-05-06T06:25:41.012Z,22.93
2023-05-06T06:26:41.091Z,22.92
2023-05-06T06:27:41.118Z,22.92
2023-05-06T06:28:41.207Z,22.93
2023-05-06T06:29:41.188Z,22.92
2023-05-06T06:30:41.237Z,22.92
2023-05-06T06:31:41.330Z,22.93
2023-05-06T06:32:41.377Z,22.93
2023-05-06T06:33:41.423Z,22.92
2023-05-06T06:34:41.508Z,22.92
2023-05-06T06:35:41.538Z,22.92
2023-05-06T06:36:41.571Z,22.92
2023-05-06T06:37:41.667Z,22.91
2023-05-06T06:38:41.716Z,22.92
2023-05-06T06:39:41.756Z,22.91
2023-05-06T06:40:41.836Z,22.92
2023-05-06T06:41:41.901Z,22.91
2023-05-06T06:42:41.950Z,22.92
2023-05-06T06:43:42.033Z,22.92
2023-05-06T06:44:42.066Z,22.92
2023-05-06T06:45:42.168Z,22.92
2023-05-06T06:46:42.232Z,22.92
2023-05-06T06:47:42.314Z,22.91
2023-05-06T06:48:42.343Z,22.92
2023-05-06T06:49:42.370Z,22.91
2023-05-06T06:50:42.421Z,22.92
2023-05-06T06:51:42.444Z,22.92
2023-05-06T06:52:42.539Z,22.92
2023-05-06T06:53:42.581Z,22.91
2023-05-06T06:54:42.648Z,22.91
2023-05-06T06:55:42.780Z,22.93
2023-05-06T06:56:42.785Z,22.91
2023-05-06T06:57:42.862Z,22.92
2023-05-06T06:58:42.939Z,22.92
2023-05-06T06:59:42.971Z,22.93
2023-05-06T07:00:43.013Z,22.95
2023-05-06T07:01:43.121Z,22.94
2023-05-06T07:02:43.178Z,22.94
2023-05-06T07:03:43.237Z,22.95
2023-05-06T07:04:43.299Z,22.95
2023-05-06T07:05:43.277Z,22.94
2023-05-06T07:06:43.367Z,22.96
2023-05-06T07:07:43.414Z,22.96
2023-05-06T07:08:43.464Z,22.95
2023-05-06T07:09:43.569Z,22.97
2023-05-06T07:10:43.564Z,22.96
2023-05-06T07:11:43.773Z,22.97
2023-05-06T07:12:43.793Z,22.98
2023-05-06T07:13:43.755Z,22.98
2023-05-06T07:14:43.828Z,22.98
2023-05-06T07:15:43.891Z,22.98
2023-05-06T07:16:45.894Z,22.98
2023-05-06T07:17:43.988Z,22.99
2023-05-06T07:18:44.076Z,22.98
2023-05-06T07:19:44.139Z,22.99
2023-05-06T07:20:44.189Z,22.99
2023-05-06T07:21:44.233Z,22.99
2023-05-06T07:22:44.235Z,22.99
2023-05-06T07:23:44.443Z,23.00
2023-05-06T07:24:44.399Z,23.00
2023-05-06T07:25:44.411Z,23.00
2023-05-06T07:26:44.571Z,22.99
2023-05-06T07:27:44.626Z,22.99
2023-05-06T07:28:44.602Z,22.99
2023-05-06T07:29:44.643Z,22.99
2023-05-06T07:30:44.711Z,22.99
2023-05-06T07:31:44.785Z,22.99
2023-05-06T07:32:44.841Z,23.00
2023-05-06T07:33:44.907Z,22.99
2023-05-06T07:34:44.948Z,23.00
2023-05-06T07:35:44.947Z,23.01
2023-05-06T07:36:45.028Z,23.01
2023-05-06T07:37:45.035Z,23.03
2023-05-06T07:38:45.123Z,23.04
2023-05-06T07:39:45.258Z,23.04
2023-05-06T07:40:45.243Z,23.05
2023-05-06T07:41:45.273Z,23.06
2023-05-06T07:42:45.311Z,23.06
2023-05-06T07:43:45.359Z,23.07
2023-05-06T07:44:45.399Z,23.07
2023-05-06T07:45:46.317Z,23.09
2023-05-06T07:46:45.575Z,23.10
2023-05-06T07:47:45.547Z,23.10
2023-05-06T07:48:45.605Z,23.11
2023-05-06T07:49:45.641Z,23.11
2023-05-06T07:50:45.661Z,23.11
2023-05-06T07:51:45.760Z,23.11
2023-05-06T07:52:45.803Z,23.11
2023-05-06T07:53:45.894Z,23.10
2023-05-06T07:54:45.880Z,23.10
2023-05-06T07:55:45.942Z,23.11
2023-05-06T07:56:45.991Z,23.11
2023-05-06T07:57:45.988Z,23.10
2023-05-06T07:58:46.094Z,23.09
2023-05-06T07:59:46.157Z,23.08
2023-05-06T08:00:46.212Z,23.08
2023-05-06T08:01:46.218Z,23.08
2023-05-06T08:02:46.293Z,23.07
2023-05-06T08:03:46.374Z,23.07
2023-05-06T08:04:46.461Z,23.06
2023-05-06T08:05:46.401Z,23.05
2023-05-06T08:06:46.451Z,23.05
2023-05-06T08:07:46.504Z,23.05
2023-05-06T08:08:46.558Z,23.05
2023-05-06T08:09:46.660Z,23.05
2023-05-06T08:10:46.626Z,23.04
2023-05-06T08:11:46.689Z,23.04
2023-05-06T08:12:46.756Z,23.04
2023-05-06T08:13:46.814Z,23.04
2023-05-06T08:14:46.820Z,23.03
2023-05-06T08:15:46.891Z,23.03
2023-05-06T08:16:47.076Z,23.03
2023-05-06T08:17:46.962Z,23.03
2023-05-06T08:18:47.000Z,23.03
2023-05-06T08:19:47.070Z,23.03
2023-05-06T08:20:47.114Z,23.03
2023-05-06T08:21:47.178Z,23.03
2023-05-06T08:22:47.230Z,23.03
2023-05-06T08:23:47.396Z,23.03
2023-05-06T08:24:47.293Z,23.04
2023-05-06T08:25:47.324Z,23.04
2023-05-06T08:26:47.422Z,23.04
2023-05-06T08:27:47.465Z,23.03
2023-05-06T08:28:47.532Z,23.03
2023-05-06T08:29:47.521Z,23.03
2023-05-06T08:30:47.560Z,23.04
2023-05-06T08:31:47.773Z,23.03
2023-05-06T08:32:47.680Z,23.03
2023-05-06T08:33:47.664Z,23.03
2023-05-06T08:34:47.722Z,23.04
2023-05-06T08:35:47.802Z,23.04
2023-05-06T08:36:47.894Z,23.03
2023-05-06T08:37:47.867Z,23.03
2023-05-06T08:38:47.901Z,23.04
2023-05-06T08:39:48.011Z,23.03
2023-05-06T08:40:47.990Z,23.03
2023-05-06T08:41:48.035Z,23.03
2023-05-06T08:42:48.109Z,23.03
2023-05-06T08:43:48.411Z,23.03
2023-05-06T08:44:48.199Z,23.03
2023-05-06T08:45:48.291Z,23.02
2023-05-06T08:46:48.265Z,23.03
2023-05-06T08:47:48.451Z,23.03
2023-05-06T08:48:48.355Z,23.03
2023-05-06T08:49:48.408Z,23.03
2023-05-06T08:50:48.423Z,23.03
2023-05-06T08:51:48.497Z,23.03
2023-05-06T08:52:48.548Z,23.03
2023-05-06T08:53:48.586Z,23.02
2023-05-06T08:54:48.664Z,23.02
2023-05-06T08:55:48.661Z,23.03
2023-05-06T08:56:48.718Z,23.02
2023-05-06T08:57:48.754Z,23.02
2023-05-06T08:58:48.863Z,23.03
2023-05-06T08:59:48.861Z,23.03
2023-05-06T09:00:48.944Z,23.03
2023-05-06T09:01:48.947Z,23.04
2023-05-06T09:02:49.129Z,23.03
2023-05-06T09:03:49.221Z,23.03
2023-05-06T09:04:49.104Z,23.03
2023-05-06T09:05:49.158Z,23.03
2023-05-06T09:06:49.187Z,23.03
2023-05-06T09:07:49.230Z,23.03
2023-05-06T09:08:49.266Z,23.03
2023-05-06T09:09:49.374Z,23.04
2023-05-06T09:10:49.390Z,23.03
2023-05-06T09:11:49.417Z,23.03
2023-05-06T09:12:49.504Z,23.03
2023-05-06T09:13:49.530Z,23.02
2023-05-06T09:14:49.607Z,23.02
2023-05-06T09:15:49.626Z,23.02
2023-05-06T09:16:49.803Z,23.02
2023-05-06T09:17:49.806Z,23.02
2023-05-06T09:18:49.751Z,23.02
2023-05-06T09:19:49.866Z,23.01
2023-05-06T09:20:49.888Z,23.02
2023-05-06T09:21:49.904Z,23.01
2023-05-06T09:22:49.920Z,23.02
2023-05-06T09:23:49.998Z,23.01
2023-05-06T09:24:50.040Z,23.02
2023-05-06T09:25:50.081Z,23.01
2023-05-06T09:26:50.120Z,23.01
2023-05-06T09:27:50.196Z,23.01
2023-05-06T09:28:50.187Z,23.01
2023-05-06T09:29:50.254Z,23.01
2023-05-06T09:30:50.284Z,23.01
2023-05-06T09:31:50.306Z,23.01
2023-05-06T09:32:50.407Z,23.01
2023-05-06T09:33:50.447Z,23.01
2023-05-06T09:34:50.436Z,23.01
2023-05-06T09:35:50.474Z,23.01
2023-05-06T09:36:50.516Z,23.01
2023-05-06T09:37:50.574Z,23.01
2023-05-06T09:38:50.645Z,23.01
2023-05-06T09:39:50.649Z,23.00
2023-05-06T09:40:50.703Z,23.00
2023-05-06T09:41:50.720Z,23.00
2023-05-06T09:42:50.756Z,23.00
2023-05-06T09:43:50.832Z,23.00
2023-05-06T09:44:50.860Z,23.00
2023-05-06T09:45:50.963Z,23.00
2023-05-06T09:46:50.996Z,23.00
2023-05-06T09:47:51.072Z,23.00
2023-05-06T09:48:51.025Z,23.00
2023-05-06T09:49:51.056Z,23.00
2023-05-06T09:50:51.120Z,23.00
2023-05-06T09:51:51.214Z,23.00
2023-05-06T09:52:51.223Z,22.99
2023-05-06T09:53:51.292Z,23.00
2023-05-06T09:54:51.357Z,23.00
2023-05-06T09:55:51.355Z,23.00
2023-05-06T09:56:51.405Z,23.00
2023-05-06T09:57:51.456Z,22.99
2023-05-06T09:58:51.566Z,23.00
2023-05-06T09:59:51.561Z,23.00
2023-05-06T10:00:51.577Z,23.00
2023-05-06T10:01:51.666Z,23.00
2023-05-06T10:02:51.811Z,23.00
2023-05-06T10:03:51.936Z,23.00
2023-05-06T10:04:52.114Z,23.00
2023-05-06T10:05:51.884Z,23.00
2023-05-06T10:06:51.939Z,23.01
2023-05-06T10:07:52.145Z,23.01
2023-05-06T10:08:52.037Z,23.01
2023-05-06T10:09:52.078Z,23.00
2023-05-06T10:10:52.110Z,23.01
2023-05-06T10:11:52.163Z,23.01
2023-05-06T10:12:52.293Z,23.01
2023-05-06T10:13:52.245Z,23.02
2023-05-06T10:14:52.303Z,23.02
2023-05-06T10:15:52.344Z,23.01
2023-05-06T10:16:52.410Z,23.02
2023-05-06T10:17:52.483Z,23.01
2023-05-06T10:18:52.495Z,23.02
2023-05-06T10:19:52.560Z,23.02
2023-05-06T10:20:52.580Z,23.02
2023-05-06T10:21:52.605Z,23.02
2023-05-06T10:22:52.675Z,23.02
2023-05-06T10:23:52.814Z,23.03
2023-05-06T10:24:52.734Z,23.02
2023-05-06T10:25:52.768Z,23.02
2023-05-06T10:26:52.800Z,23.02
2023-05-06T10:27:52.861Z,23.03
2023-05-06T10:28:52.934Z,23.02
2023-05-06T10:29:52.923Z,23.03
2023-05-06T10:30:53.012Z,23.03
2023-05-06T10:31:53.058Z,23.03
2023-05-06T10:32:53.164Z,23.03
2023-05-06T10:33:53.161Z,23.03
2023-05-06T10:34:53.186Z,23.03
2023-05-06T10:35:53.208Z,23.04
2023-05-06T10:36:53.263Z,23.03
2023-05-06T10:37:53.283Z,23.02
2023-05-06T10:38:53.451Z,23.03
2023-05-06T10:39:53.514Z,23.03
2023-05-06T10:40:53.435Z,23.04
2023-05-06T10:41:53.520Z,23.03
2023-05-06T10:42:53.506Z,23.04
2023-05-06T10:43:53.927Z,23.04
2023-05-06T10:44:53.630Z,23.04
2023-05-06T10:45:53.695Z,23.04
2023-05-06T10:46:53.693Z,23.03
2023-05-06T10:47:53.786Z,23.04
2023-05-06T10:48:53.806Z,23.03
2023-05-06T10:49:53.816Z,23.03
2023-05-06T10:50:53.886Z,23.03
2023-05-06T10:51:53.916Z,23.04
2023-05-06T10:52:53.976Z,23.03
2023-05-06T10:53:54.009Z,23.03
2023-05-06T10:54:54.052Z,23.04
2023-05-06T10:55:54.142Z,23.04
2023-05-06T10:56:54.141Z,23.04
2023-05-06T10:57:54.155Z,23.04
2023-05-06T10:58:54.210Z,23.04
2023-05-06T10:59:54.294Z,23.04
2023-05-06T11:00:54.343Z,23.04
2023-05-06T11:01:54.322Z,23.04
2023-05-06T11:02:54.470Z,23.04
2023-05-06T11:03:54.441Z,23.04
2023-05-06T11:04:54.489Z,23.04
2023-05-06T11:05:54.523Z,23.04
2023-05-06T11:06:54.541Z,23.04
2023-05-06T11:07:54.568Z,23.04
2023-05-06T11:08:54.620Z,23.04
2023-05-06T11:09:54.686Z,23.04
2023-05-06T11:10:54.691Z,23.04
2023-05-06T11:11:54.768Z,23.04
2023-05-06T11:12:54.793Z,23.04
2023-05-06T11:13:54.855Z,23.04
2023-05-06T11:14:54.835Z,23.04
2023-05-06T11:15:54.883Z,23.04
2023-05-06T11:16:54.954Z,23.04
2023-05-06T11:17:54.998Z,23.04
2023-05-06T11:18:54.952Z,23.05
2023-05-06T11:19:54.996Z,23.05
2023-05-06T11:20:55.046Z,23.04
2023-05-06T11:21:55.122Z,23.05
2023-05-06T11:22:55.115Z,23.04
2023-05-06T11:23:55.171Z,23.05
2023-05-06T11:24:55.198Z,23.04
2023-05-06T11:25:55.227Z,23.05
2023-05-06T11:26:55.290Z,23.05
2023-05-06T11:27:55.391Z,23.05
2023-05-06T11:28:55.359Z,23.05
2023-05-06T11:29:55.425Z,23.05
2023-05-06T11:30:55.512Z,23.05
2023-05-06T11:31:55.497Z,23.05
2023-05-06T11:32:55.606Z,23.05
2023-05-06T11:33:55.563Z,23.05
2023-05-06T11:34:55.658Z,23.05
2023-05-06T11:35:55.661Z,23.05
2023-05-06T11:36:55.696Z,23.05
2023-05-06T11:37:55.756Z,23.06
2023-05-06T11:38:55.787Z,23.05
2023-05-06T11:39:55.866Z,23.05
2023-05-06T11:40:55.848Z,23.06
2023-05-06T11:41:55.872Z,23.06
2023-05-06T11:42:55.899Z,23.06
2023-05-06T11:43:56.015Z,23.07
2023-05-06T11:44:55.992Z,23.06
2023-05-06T11:45:56.045Z,23.07
2023-05-06T11:46:56.073Z,23.06
2023-05-06T11:47:56.235Z,23.07
2023-05-06T11:48:56.152Z,23.07
2023-05-06T11:49:56.150Z,23.07
2023-05-06T11:50:56.191Z,23.07
2023-05-06T11:51:56.206Z,23.08
2023-05-06T11:52:56.285Z,23.07
2023-05-06T11:53:56.350Z,23.08
2023-05-06T11:54:56.322Z,23.07
2023-05-06T11:55:56.378Z,23.08
2023-05-06T11:56:56.425Z,23.08
2023-05-06T11:57:56.446Z,23.09
2023-05-06T11:58:56.497Z,23.08
2023-05-06T11:59:56.594Z,23.08
2023-05-06T12:00:56.560Z,23.09
2023-05-06T12:01:56.584Z,23.08
2023-05-06T12:02:56.729Z,23.09
2023-05-06T12:03:56.849Z,23.08
2023-05-06T12:04:56.945Z,23.08
2023-05-06T12:05:56.760Z,23.09
2023-05-06T12:06:56.784Z,23.09
2023-05-06T12:07:56.867Z,23.09
2023-05-06T12:08:56.956Z,23.09
2023-05-06T12:09:56.864Z,23.09
2023-05-06T12:10:56.964Z,23.10
2023-05-06T12:11:56.970Z,23.10
2023-05-06T12:12:56.975Z,23.10
2023-05-06T12:13:57.047Z,23.10
2023-05-06T12:14:57.071Z,23.11
2023-05-06T12:15:57.177Z,23.10
2023-05-06T12:16:57.114Z,23.11
2023-05-06T12:17:57.184Z,23.11
2023-05-06T12:18:57.163Z,23.11
2023-05-06T12:19:57.181Z,23.11
2023-05-06T12:20:57.267Z,23.11
2023-05-06T12:21:57.248Z,23.11
2023-05-06T12:22:57.299Z,23.12
2023-05-06T12:23:57.421Z,23.12
2023-05-06T12:24:57.348Z,23.12
2023-05-06T12:25:57.422Z,23.12
2023-05-06T12:26:57.424Z,23.12
2023-05-06T12:27:57.983Z,23.13
2023-05-06T12:28:57.465Z,23.13
2023-05-06T12:29:57.508Z,23.14
2023-05-06T12:30:57.568Z,23.14
2023-05-06T12:31:57.695Z,23.14
2023-05-06T12:32:57.684Z,23.14
2023-05-06T12:33:59.236Z,23.14
2023-05-06T12:34:57.646Z,23.14
2023-05-06T12:35:57.664Z,23.15
2023-05-06T12:36:57.623Z,23.15
2023-05-06T12:37:57.607Z,23.14
2023-05-06T12:38:57.623Z,23.16
2023-05-06T12:39:59.103Z,23.15
2023-05-06T12:40:57.632Z,23.15
2023-05-06T12:41:57.602Z,23.16
2023-05-06T12:42:57.567Z,23.16
2023-05-06T12:43:57.624Z,23.16
2023-05-06T12:44:57.597Z,23.16
2023-05-06T12:45:58.106Z,23.17
2023-05-06T12:46:57.572Z,23.17
2023-05-06T12:47:57.689Z,23.16
2023-05-06T12:48:57.591Z,23.18
2023-05-06T12:49:57.553Z,23.17
2023-05-06T12:50:57.578Z,23.18
2023-05-06T12:51:57.572Z,23.18
2023-05-06T12:52:57.503Z,23.19